WetterOnline ( http://www.wetteronline.de )

Wetter aktuell Andernach

Aktuelles Wetter: Andernach (75m)

6-stündlich | Neueste Meldungen
Ortszeit Temperatur Wetter
Do, 15.11. 19:00 6.4° C bedeckt
Do, 15.11. 13:00 7.0° C bedeckt
Do, 15.11. 7:00 6.8° C bedeckt
Do, 15.11. 1:00 7.6° C bedeckt
Mi, 14.11. 19:00 5.0° C wolkig
Mi, 14.11. 13:00 7.0° C bedeckt
Mi, 14.11. 7:00 4.5° C Nebel
Mi, 14.11. 1:00 3.6° C wolkig
Ortszeit Temperatur Wetter
Do, 15.11. 23:30 6.1° C bedeckt
Do, 15.11. 23:20 6.1° C bedeckt
Do, 15.11. 23:10 6.1° C bedeckt
Do, 15.11. 23:00 6.1° C bedeckt
Do, 15.11. 22:50 6.1° C bedeckt
Do, 15.11. 22:40 6.1° C bedeckt
Do, 15.11. 22:30 6.2° C bedeckt
Do, 15.11. 22:00 6.3° C bedeckt
Do, 15.11. 21:30 6.3° C bedeckt
Do, 15.11. 21:00 6.2° C bedeckt
Do, 15.11. 20:30 6.2° C bedeckt
Ortszeit Relative Feuchte Sichtweite
Do, 15.11. 19:00 82% 17 km
Do, 15.11. 13:00 78% 40 km
Do, 15.11. 7:00 86% 15 km
Do, 15.11. 1:00 90% 14 km
Mi, 14.11. 19:00 97% 13 km
Mi, 14.11. 13:00 93% 11 km
Mi, 14.11. 7:00 99% 0.3 km
Mi, 14.11. 1:00 98% 15 km
Ortszeit Relative Feuchte Sichtweite
Do, 15.11. 23:30 84% 12 km
Do, 15.11. 23:20 84% -
Do, 15.11. 23:10 85% -
Do, 15.11. 23:00 85% 11 km
Do, 15.11. 22:50 85% -
Do, 15.11. 22:40 85% -
Do, 15.11. 22:30 86% 10 km
Do, 15.11. 22:00 87% 9 km
Do, 15.11. 21:30 88% 9 km
Do, 15.11. 21:00 86% 10 km
Do, 15.11. 20:30 83% 11 km
Ortszeit Niederschlagsmenge Niederschlagsart
Do, 15.11. 19:00 0.0 l/m2 in 12 Std. -
Do, 15.11. 13:00 0.0 l/m2 in 6 Std. -
Do, 15.11. 7:00 0.0 l/m2 in 12 Std. -
Do, 15.11. 1:00 0.0 l/m2 in 6 Std. -
Mi, 14.11. 19:00 0.1 l/m2 in 12 Std. -
Mi, 14.11. 13:00 0.1 l/m2 in 6 Std. Sprühregen
Mi, 14.11. 7:00 0.0 l/m2 in 12 Std. -
Mi, 14.11. 1:00 0.0 l/m2 in 6 Std. -
Ortszeit Niederschlagsmenge Niederschlagsart
Do, 15.11. 23:30 0.0 l/m2 in 1 Std. -
Do, 15.11. 23:20 keine Meldung -
Do, 15.11. 23:10 keine Meldung -
Do, 15.11. 23:00 0.0 l/m2 in 1 Std. -
Do, 15.11. 22:50 keine Meldung -
Do, 15.11. 22:40 keine Meldung -
Do, 15.11. 22:30 0.0 l/m2 in 1 Std. -
Do, 15.11. 22:00 0.0 l/m2 in 1 Std. -
Do, 15.11. 21:30 0.0 l/m2 in 1 Std. -
Do, 15.11. 21:00 0.0 l/m2 in 1 Std. -
Do, 15.11. 20:30 0.0 l/m2 in 1 Std. -
Ortszeit Stärke Spitze Richtung
km/h Bft. km/h Grad Sektor
Do, 15.11. 19:00 13 3 20 160° S
Do, 15.11. 13:00 9 2 20 160° S
Do, 15.11. 7:00 9 2 19 120° SO
Do, 15.11. 1:00 11 2 18 150° SO
Mi, 14.11. 19:00 9 2 17 110° O
Mi, 14.11. 13:00 0 0 11 - -
Mi, 14.11. 7:00 0 0 11 - -
Mi, 14.11. 1:00 4 1 18 290° W
Ortszeit Stärke Spitze Richtung
km/h Bft. km/h Grad Sektor
Do, 15.11. 23:30 11 2 22 150° SO
Do, 15.11. 23:20 11 2 - 150° SO
Do, 15.11. 23:10 14 3 - 140° SO
Do, 15.11. 23:00 13 3 22 130° SO
Do, 15.11. 22:50 13 3 - 130° SO
Do, 15.11. 22:40 15 3 - 130° SO
Do, 15.11. 22:30 14 3 22 130° SO
Do, 15.11. 22:00 11 2 18 130° SO
Do, 15.11. 21:30 13 3 19 140° SO
Do, 15.11. 21:00 11 2 22 150° SO
Do, 15.11. 20:30 14 3 22 140° SO
Ortszeit Untergrenze Bedeckung Gattung
total tief tief mittel hoch
Do, 15.11. 19:00 390 m 8/8 8/8 - - -
Do, 15.11. 13:00 450 m 8/8 8/8 - - -
Do, 15.11. 7:00 330 m 8/8 8/8 - - -
Do, 15.11. 1:00 300 m 8/8 8/8 - - -
Mi, 14.11. 19:00 <30 m 8/8 1/8 - - -
Mi, 14.11. 13:00 90 m 8/8 8/8 - - -
Mi, 14.11. 7:00 30 m 8/8 8/8 - - -
Mi, 14.11. 1:00 10500 m 7/8 0/8 - - -
Ortszeit Bedeckungsgrad in Achtel und Wolkenuntergrenze
Do, 15.11. 23:30 8(330m)
Do, 15.11. 23:20 8(330m)
Do, 15.11. 23:10 8(330m)
Do, 15.11. 23:00 8(300m)
Do, 15.11. 22:50 8(300m)
Do, 15.11. 22:40 8(270m)
Do, 15.11. 22:30 8(270m)
Do, 15.11. 22:00 8(240m)
Do, 15.11. 21:30 8(270m)
Do, 15.11. 21:00 8(300m)
Do, 15.11. 20:30 8(360m)
Ortszeit Luftdruck NN (hPa) Tendenz (hPa in 3 Std.)
Do, 15.11. 19:00 1028 + 0,1
Do, 15.11. 13:00 1028 - 0,6
Do, 15.11. 7:00 1028 - 0,1
Do, 15.11. 1:00 1028 0,0
Mi, 14.11. 19:00 1029 - 0,1
Mi, 14.11. 13:00 1030 - 0,8
Mi, 14.11. 7:00 1031 - 0,8
Mi, 14.11. 1:00 1031 + 0,4
Ortszeit Luftdruck NN (hPa) Tendenz (hPa in 3 Std.)
Do, 15.11. 23:30 1028 + 0,5
Do, 15.11. 23:20 1028 keine Meldung
Do, 15.11. 23:10 1028 keine Meldung
Do, 15.11. 23:00 1028 + 0,5
Do, 15.11. 22:50 1028 keine Meldung
Do, 15.11. 22:40 1028 keine Meldung
Do, 15.11. 22:30 1028 + 0,6
Do, 15.11. 22:00 1028 + 0,6
Do, 15.11. 21:30 1028 + 0,5
Do, 15.11. 21:00 1028 + 0,6
Do, 15.11. 20:30 1028 + 0,5
Ortszeit Schneehöhe (cm)
Do, 15.11. 19:00 0
Do, 15.11. 13:00 0
Do, 15.11. 7:00 0
Do, 15.11. 1:00 0
Mi, 14.11. 19:00 0
Mi, 14.11. 13:00 0
Mi, 14.11. 7:00 0
Mi, 14.11. 1:00 0
Ortszeit Schneehöhe (cm)
Do, 15.11. 23:30 0
Do, 15.11. 23:20 0
Do, 15.11. 23:10 0
Do, 15.11. 23:00 0
Do, 15.11. 22:50 0
Do, 15.11. 22:40 0
Do, 15.11. 22:30 0
Do, 15.11. 22:00 0
Do, 15.11. 21:30 0
Do, 15.11. 21:00 0
Do, 15.11. 20:30 0
Link zu dieser Seite / Seite empfehlen

Das Wetter in ...